createdAt,value
2023-02-22T00:00:43.903Z,75.61
2023-02-22T00:03:15.300Z,75.29
2023-02-22T00:05:45.214Z,75.42
2023-02-22T00:08:12.955Z,75.53
2023-02-22T00:10:40.760Z,75.72
2023-02-22T00:13:13.265Z,75.69
2023-02-22T00:15:42.523Z,75.85
2023-02-22T00:18:11.497Z,75.98
2023-02-22T00:20:39.954Z,76.11
2023-02-22T00:23:09.282Z,76.25
2023-02-22T00:25:37.865Z,76.23
2023-02-22T00:28:06.131Z,76.25
2023-02-22T00:30:34.794Z,76.46
2023-02-22T00:33:04.050Z,76.75
2023-02-22T00:35:32.267Z,76.61
2023-02-22T00:38:01.648Z,76.91
2023-02-22T00:40:31.355Z,76.83
2023-02-22T00:42:59.983Z,77.15
2023-02-22T00:45:30.019Z,77.34
2023-02-22T00:47:58.098Z,77.33
2023-02-22T00:50:28.981Z,77.37
2023-02-22T00:52:57.643Z,77.60
2023-02-22T00:55:27.470Z,77.06
2023-02-22T00:57:55.619Z,77.40
2023-02-22T01:00:25.737Z,77.45
2023-02-22T01:02:53.481Z,77.27
2023-02-22T01:05:23.189Z,77.44
2023-02-22T01:07:52.673Z,77.29
2023-02-22T01:10:22.409Z,77.56
2023-02-22T01:12:51.055Z,77.51
2023-02-22T01:15:21.819Z,77.55
2023-02-22T01:17:50.948Z,77.49
2023-02-22T01:20:19.799Z,77.47
2023-02-22T01:22:49.733Z,77.48
2023-02-22T01:25:20.549Z,77.58
2023-02-22T01:27:50.235Z,77.67
2023-02-22T01:30:22.785Z,77.71
2023-02-22T01:32:51.405Z,77.66
2023-02-22T01:35:21.653Z,77.99
2023-02-22T01:37:49.663Z,77.90
2023-02-22T01:40:21.761Z,77.71
2023-02-22T01:42:52.871Z,77.58
2023-02-22T01:45:47.156Z,77.68
2023-02-22T01:48:20.186Z,77.54
2023-02-22T01:50:52.758Z,77.76
2023-02-22T01:53:23.115Z,77.63
2023-02-22T01:55:52.582Z,77.73
2023-02-22T01:58:20.912Z,77.86
2023-02-22T02:00:48.704Z,77.84
2023-02-22T02:03:21.705Z,77.84
2023-02-22T02:05:50.099Z,77.90
2023-02-22T02:08:30.451Z,77.96
2023-02-22T02:11:00.973Z,77.75
2023-02-22T02:13:29.878Z,78.03
2023-02-22T02:15:58.051Z,78.08
2023-02-22T02:18:27.936Z,78.25
2023-02-22T02:21:19.993Z,78.09
2023-02-22T02:24:06.110Z,77.88
2023-02-22T02:27:01.263Z,78.21
2023-02-22T02:30:03.774Z,78.48
2023-02-22T02:32:40.532Z,78.48
2023-02-22T02:35:12.729Z,78.40
2023-02-22T02:37:48.552Z,78.41
2023-02-22T02:40:22.051Z,78.54
2023-02-22T02:42:55.910Z,78.65
2023-02-22T02:45:27.789Z,78.81
2023-02-22T02:47:58.882Z,78.94
2023-02-22T02:50:29.245Z,78.89
2023-02-22T02:52:59.592Z,78.88
2023-02-22T02:55:28.521Z,79.16
2023-02-22T02:57:56.872Z,79.38
2023-02-22T03:00:28.441Z,79.31
2023-02-22T03:03:09.004Z,79.67
2023-02-22T03:05:59.983Z,80.17
2023-02-22T03:08:33.665Z,80.10
2023-02-22T03:11:15.132Z,80.23
2023-02-22T03:13:52.906Z,80.14
2023-02-22T03:16:24.671Z,80.22
2023-02-22T03:18:58.360Z,80.53
2023-02-22T03:21:31.123Z,80.29
2023-02-22T03:24:04.337Z,80.10
2023-02-22T03:26:36.713Z,80.27
2023-02-22T03:29:06.735Z,80.34
2023-02-22T03:31:38.067Z,80.24
2023-02-22T03:34:10.723Z,80.12
2023-02-22T03:36:41.903Z,80.08
2023-02-22T03:39:16.088Z,79.71
2023-02-22T03:41:51.548Z,80.14
2023-02-22T03:44:22.889Z,80.22
2023-02-22T03:46:51.838Z,80.24
2023-02-22T03:49:25.212Z,80.56
2023-02-22T03:51:53.395Z,80.29
2023-02-22T03:54:21.149Z,80.62
2023-02-22T03:56:51.449Z,80.70
2023-02-22T03:59:19.363Z,80.83
2023-02-22T04:01:47.052Z,80.98
2023-02-22T04:04:15.015Z,80.78
2023-02-22T04:06:44.128Z,80.83
2023-02-22T04:09:11.899Z,80.77
2023-02-22T04:11:39.571Z,80.69
2023-02-22T04:14:07.302Z,81.00
2023-02-22T04:16:35.005Z,81.35
2023-02-22T04:19:02.857Z,81.13
2023-02-22T04:21:30.599Z,80.81
2023-02-22T04:24:00.964Z,81.44
2023-02-22T04:26:28.758Z,81.20
2023-02-22T04:28:56.556Z,80.96
2023-02-22T04:31:24.319Z,81.39
2023-02-22T04:33:52.111Z,81.14
2023-02-22T04:36:21.663Z,81.51
2023-02-22T04:38:49.471Z,81.23
2023-02-22T04:41:19.717Z,81.39
2023-02-22T04:43:47.739Z,81.67
2023-02-22T04:46:15.656Z,81.61
2023-02-22T04:48:43.412Z,81.46
2023-02-22T04:51:11.208Z,81.24
2023-02-22T04:53:38.927Z,81.31
2023-02-22T04:56:07.293Z,81.49
2023-02-22T04:58:36.577Z,81.46
2023-02-22T05:01:04.656Z,81.17
2023-02-22T05:03:32.388Z,80.84
2023-02-22T05:06:00.203Z,81.03
2023-02-22T05:08:27.892Z,81.19
2023-02-22T05:10:55.600Z,80.75
2023-02-22T05:13:23.372Z,80.96
2023-02-22T05:15:52.520Z,80.81
2023-02-22T05:18:20.343Z,80.47
2023-02-22T05:20:48.218Z,80.32
2023-02-22T05:23:15.981Z,80.32
2023-02-22T05:25:43.694Z,80.57
2023-02-22T05:28:14.224Z,80.50
2023-02-22T05:30:42.294Z,80.89
2023-02-22T05:33:11.810Z,80.63
2023-02-22T05:35:39.774Z,80.25
2023-02-22T05:38:07.967Z,80.44
2023-02-22T05:40:35.799Z,80.38
2023-02-22T05:43:03.815Z,80.54
2023-02-22T05:45:31.595Z,80.32
2023-02-22T05:47:59.996Z,79.80
2023-02-22T05:50:29.241Z,80.52
2023-02-22T05:52:56.943Z,80.62
2023-02-22T05:55:25.238Z,80.47
2023-02-22T05:57:53.437Z,79.66
2023-02-22T06:00:23.530Z,79.96
2023-02-22T06:02:55.657Z,79.58
2023-02-22T06:05:23.509Z,79.51
2023-02-22T06:07:52.644Z,80.05
2023-02-22T06:10:21.181Z,79.14
2023-02-22T06:12:49.019Z,79.44
2023-02-22T06:15:17.512Z,79.22
2023-02-22T06:17:45.857Z,79.09
2023-02-22T06:20:15.971Z,79.33
2023-02-22T06:22:44.766Z,79.02
2023-02-22T06:25:17.162Z,79.22
2023-02-22T06:27:44.863Z,78.96
2023-02-22T06:30:13.756Z,78.42
2023-02-22T06:32:41.522Z,78.63
2023-02-22T06:35:09.637Z,78.39
2023-02-22T06:37:38.632Z,78.44
2023-02-22T06:40:06.888Z,78.32
2023-02-22T06:42:36.022Z,78.28
2023-02-22T06:45:03.834Z,78.60
2023-02-22T06:47:31.565Z,78.01
2023-02-22T06:50:00.847Z,78.80
2023-02-22T06:52:28.620Z,78.52
2023-02-22T06:54:56.343Z,78.14
2023-02-22T06:57:24.100Z,78.18
2023-02-22T06:59:53.145Z,77.90
2023-02-22T07:02:20.860Z,77.87
2023-02-22T07:04:48.558Z,77.92
2023-02-22T07:07:16.296Z,77.71
2023-02-22T07:09:47.311Z,78.33
2023-02-22T07:12:15.105Z,77.58
2023-02-22T07:14:42.828Z,77.70
2023-02-22T07:17:11.947Z,78.20
2023-02-22T07:19:39.660Z,78.78
2023-02-22T07:22:07.399Z,78.33
2023-02-22T07:24:36.057Z,78.34
2023-02-22T07:27:03.802Z,78.53
2023-02-22T07:29:31.873Z,78.48
2023-02-22T07:31:59.653Z,78.83
2023-02-22T07:34:28.840Z,79.36
2023-02-22T07:36:56.562Z,79.29
2023-02-22T07:39:24.261Z,79.39
2023-02-22T07:41:51.994Z,79.95
2023-02-22T07:44:19.713Z,79.84
2023-02-22T07:46:49.199Z,80.08
2023-02-22T07:49:17.580Z,80.04
2023-02-22T07:51:46.706Z,80.38
2023-02-22T07:54:14.430Z,80.19
2023-02-22T07:56:46.394Z,80.03
2023-02-22T07:59:14.100Z,79.88
2023-02-22T08:01:42.122Z,80.00
2023-02-22T08:04:09.901Z,79.99
2023-02-22T08:06:37.618Z,79.77
2023-02-22T08:09:06.789Z,79.67
2023-02-22T08:11:34.526Z,79.69
2023-02-22T08:14:02.203Z,79.62
2023-02-22T08:16:29.916Z,79.45
2023-02-22T08:18:57.646Z,79.27
2023-02-22T08:21:25.362Z,78.99
2023-02-22T08:23:54.256Z,78.61
2023-02-22T08:26:25.417Z,78.75
2023-02-22T08:28:53.173Z,78.27
2023-02-22T08:31:21.117Z,77.47
2023-02-22T08:33:50.119Z,77.18
2023-02-22T08:36:18.650Z,76.63
2023-02-22T08:38:46.578Z,75.20
2023-02-22T08:41:14.297Z,74.63
2023-02-22T08:43:43.421Z,74.00
2023-02-22T08:46:11.195Z,73.98
2023-02-22T08:48:39.003Z,72.99
2023-02-22T08:51:07.001Z,73.22
2023-02-22T08:53:34.866Z,73.80
2023-02-22T08:56:02.603Z,74.18
2023-02-22T08:58:30.317Z,73.82
2023-02-22T09:00:59.397Z,74.41
2023-02-22T09:03:27.211Z,75.12
2023-02-22T09:05:55.004Z,75.03
2023-02-22T09:08:22.984Z,75.04
2023-02-22T09:10:51.253Z,74.75
2023-02-22T09:13:19.073Z,74.55
2023-02-22T09:15:46.802Z,74.87
2023-02-22T09:18:18.111Z,74.54
2023-02-22T09:20:45.922Z,75.18
2023-02-22T09:23:14.545Z,74.68
2023-02-22T09:25:42.393Z,74.50
2023-02-22T09:28:10.338Z,73.94
2023-02-22T09:30:38.577Z,74.16
2023-02-22T09:33:10.092Z,73.48
2023-02-22T09:35:42.495Z,71.85
2023-02-22T09:38:11.490Z,70.92
2023-02-22T09:40:45.076Z,70.77
2023-02-22T09:43:22.760Z,70.15
2023-02-22T09:45:59.461Z,70.15
2023-02-22T09:48:27.521Z,69.81
2023-02-22T09:50:59.469Z,69.56
2023-02-22T09:53:30.444Z,68.48
2023-02-22T09:56:00.798Z,67.97
2023-02-22T09:58:33.796Z,67.97
2023-02-22T10:01:14.425Z,67.49
2023-02-22T10:03:50.671Z,67.85
2023-02-22T10:06:22.535Z,68.19
2023-02-22T10:08:51.288Z,69.57
2023-02-22T10:11:29.439Z,69.23
2023-02-22T10:14:03.530Z,69.60
2023-02-22T10:16:34.498Z,70.32
2023-02-22T10:19:10.786Z,70.46
2023-02-22T10:21:50.575Z,72.56
2023-02-22T10:24:30.808Z,71.67
2023-02-22T10:26:59.889Z,72.44
2023-02-22T10:29:32.685Z,70.47
2023-02-22T10:32:03.504Z,69.04
2023-02-22T10:34:36.327Z,67.47
2023-02-22T10:37:20.514Z,68.87
2023-02-22T10:39:49.759Z,68.69
2023-02-22T10:42:22.133Z,67.07
2023-02-22T10:44:49.943Z,66.67
2023-02-22T10:47:21.068Z,67.42
2023-02-22T10:49:52.332Z,66.27
2023-02-22T10:52:27.039Z,65.86
2023-02-22T10:55:03.520Z,66.45
2023-02-22T10:57:42.408Z,66.81
2023-02-22T11:00:20.436Z,65.24
2023-02-22T11:02:54.582Z,63.58
2023-02-22T11:05:36.828Z,62.64
2023-02-22T11:08:25.906Z,62.48
2023-02-22T11:10:55.739Z,61.92
2023-02-22T11:13:29.478Z,61.87
2023-02-22T11:16:00.182Z,61.72
2023-02-22T11:18:31.336Z,61.63
2023-02-22T11:21:04.792Z,61.95
2023-02-22T11:23:34.878Z,61.48
2023-02-22T11:26:07.370Z,60.01
2023-02-22T11:28:35.553Z,59.68
2023-02-22T11:31:15.698Z,59.00
2023-02-22T11:33:52.549Z,58.85
2023-02-22T11:36:37.510Z,57.48
2023-02-22T11:39:11.551Z,55.82
2023-02-22T11:41:39.441Z,56.43
2023-02-22T11:44:16.004Z,56.61
2023-02-22T11:46:44.744Z,54.77
2023-02-22T11:49:14.316Z,53.16
2023-02-22T11:51:52.435Z,52.52
2023-02-22T11:54:40.064Z,52.92
2023-02-22T11:57:17.196Z,54.69
2023-02-22T11:59:56.733Z,54.40
2023-02-22T12:02:33.913Z,53.70
2023-02-22T12:05:13.592Z,53.39
2023-02-22T12:07:50.572Z,53.95
2023-02-22T12:10:28.315Z,52.72
2023-02-22T12:13:06.308Z,52.15
2023-02-22T12:15:40.151Z,51.76
2023-02-22T12:18:15.629Z,51.23
2023-02-22T12:20:47.706Z,49.86
2023-02-22T12:23:20.157Z,49.60
2023-02-22T12:25:58.660Z,48.55
2023-02-22T12:28:32.136Z,48.76
2023-02-22T12:31:08.659Z,47.73
2023-02-22T12:33:44.255Z,47.31
2023-02-22T12:36:15.480Z,47.89
2023-02-22T12:38:45.079Z,47.72
2023-02-22T12:41:20.128Z,48.38
2023-02-22T12:43:51.995Z,48.06
2023-02-22T12:46:22.988Z,47.99
2023-02-22T12:48:54.929Z,50.50
2023-02-22T12:51:28.309Z,50.72
2023-02-22T12:54:04.835Z,49.82
2023-02-22T12:56:36.216Z,49.56
2023-02-22T12:59:09.195Z,49.60
2023-02-22T13:01:40.409Z,51.42
2023-02-22T13:04:20.227Z,50.09
2023-02-22T13:06:59.390Z,51.18
2023-02-22T13:09:43.536Z,51.22
2023-02-22T13:12:18.289Z,53.00
2023-02-22T13:14:55.658Z,51.49
2023-02-22T13:17:33.004Z,51.85
2023-02-22T13:20:02.616Z,53.24
2023-02-22T13:22:36.317Z,53.25
2023-02-22T13:25:09.478Z,53.01
2023-02-22T13:27:42.793Z,51.96
2023-02-22T13:30:19.748Z,51.12
2023-02-22T13:33:02.382Z,50.77
2023-02-22T13:35:38.730Z,50.74
2023-02-22T13:38:30.899Z,51.94
2023-02-22T13:41:19.273Z,52.20
2023-02-22T13:44:04.407Z,52.85
2023-02-22T13:46:44.624Z,52.21
2023-02-22T13:49:39.679Z,52.24
2023-02-22T13:52:09.796Z,50.85
2023-02-22T13:54:42.235Z,51.63
2023-02-22T13:57:20.346Z,52.52
2023-02-22T13:59:49.644Z,52.77
2023-02-22T14:02:36.771Z,53.97
2023-02-22T14:05:38.927Z,53.78
2023-02-22T14:08:07.240Z,54.81
2023-02-22T14:10:57.015Z,55.73
2023-02-22T14:13:26.668Z,56.45
2023-02-22T14:16:28.978Z,56.73
2023-02-22T14:19:06.561Z,57.71
2023-02-22T14:21:35.709Z,57.65
2023-02-22T14:24:18.905Z,58.57
2023-02-22T14:26:56.546Z,59.34
2023-02-22T14:29:25.593Z,60.02
2023-02-22T14:32:04.607Z,60.64
2023-02-22T14:34:43.421Z,60.49
2023-02-22T14:37:15.270Z,60.27
2023-02-22T14:39:45.999Z,59.49
2023-02-22T14:42:15.772Z,58.80
2023-02-22T14:44:50.083Z,58.68
2023-02-22T14:47:23.096Z,58.05
2023-02-22T14:49:52.445Z,59.06
2023-02-22T14:52:26.150Z,57.85
2023-02-22T14:55:04.429Z,57.48
2023-02-22T14:57:39.056Z,56.61
2023-02-22T15:00:30.959Z,56.84
2023-02-22T15:03:01.274Z,56.78
2023-02-22T15:05:38.265Z,58.34
2023-02-22T15:08:08.379Z,58.96
2023-02-22T15:10:42.995Z,59.93
2023-02-22T15:13:18.721Z,60.16
2023-02-22T15:15:49.521Z,61.29
2023-02-22T15:18:25.292Z,62.36
2023-02-22T15:20:57.717Z,62.40
2023-02-22T15:23:27.805Z,62.79
2023-02-22T15:25:55.678Z,63.28
2023-02-22T15:28:24.686Z,64.59
2023-02-22T15:30:52.487Z,64.05
2023-02-22T15:33:24.687Z,64.36
2023-02-22T15:35:56.473Z,64.37
2023-02-22T15:38:29.656Z,64.64
2023-02-22T15:41:02.617Z,65.28
2023-02-22T15:43:32.269Z,65.26
2023-02-22T15:46:00.906Z,65.04
2023-02-22T15:48:31.728Z,65.12
2023-02-22T15:51:07.680Z,65.64
2023-02-22T15:53:41.776Z,65.37
2023-02-22T15:56:13.758Z,65.00
2023-02-22T15:58:41.762Z,65.04
2023-02-22T16:01:12.424Z,64.76
2023-02-22T16:03:47.147Z,65.03
2023-02-22T16:06:17.337Z,64.91
2023-02-22T16:08:55.148Z,64.73
2023-02-22T16:11:30.017Z,64.29
2023-02-22T16:14:00.656Z,64.54
2023-02-22T16:16:31.533Z,65.13
2023-02-22T16:19:28.870Z,65.67
2023-02-22T16:22:02.796Z,65.35
2023-02-22T16:24:33.450Z,65.42
2023-02-22T16:27:07.941Z,65.63
2023-02-22T16:29:35.768Z,65.37
2023-02-22T16:32:03.955Z,65.69
2023-02-22T16:34:33.178Z,65.88
2023-02-22T16:37:01.373Z,65.85
2023-02-22T16:39:30.827Z,66.14
2023-02-22T16:42:00.331Z,65.93
2023-02-22T16:44:28.765Z,66.33
2023-02-22T16:46:57.713Z,66.22
2023-02-22T16:49:25.743Z,66.50
2023-02-22T16:51:56.497Z,66.47
2023-02-22T16:54:26.774Z,66.87
2023-02-22T16:56:56.078Z,67.20
2023-02-22T16:59:24.103Z,66.78
2023-02-22T17:01:51.845Z,67.10
2023-02-22T17:04:21.179Z,67.51
2023-02-22T17:06:49.871Z,67.21
2023-02-22T17:09:20.168Z,67.55
2023-02-22T17:11:50.110Z,67.94
2023-02-22T17:14:20.422Z,67.75
2023-02-22T17:16:48.158Z,68.03
2023-02-22T17:19:17.284Z,67.84
2023-02-22T17:21:45.005Z,68.54
2023-02-22T17:24:13.807Z,68.71
2023-02-22T17:26:43.160Z,68.90
2023-02-22T17:29:10.978Z,68.95
2023-02-22T17:31:38.770Z,68.83
2023-02-22T17:34:07.243Z,69.18
2023-02-22T17:36:37.071Z,69.59
2023-02-22T17:39:05.672Z,69.64
2023-02-22T17:41:33.851Z,69.55
2023-02-22T17:44:03.039Z,69.14
2023-02-22T17:46:31.035Z,69.66
2023-02-22T17:48:58.787Z,69.82
2023-02-22T17:51:26.845Z,69.91
2023-02-22T17:53:54.617Z,70.41
2023-02-22T17:56:22.741Z,70.33
2023-02-22T17:58:54.218Z,70.15
2023-02-22T18:01:27.144Z,70.75
2023-02-22T18:03:55.734Z,70.38
2023-02-22T18:06:28.336Z,70.86
2023-02-22T18:08:56.969Z,71.18
2023-02-22T18:11:26.785Z,70.88
2023-02-22T18:13:55.172Z,71.17
2023-02-22T18:16:25.570Z,70.98
2023-02-22T18:18:53.792Z,71.46
2023-02-22T18:21:21.703Z,71.85
2023-02-22T18:23:49.462Z,72.27
2023-02-22T18:26:18.472Z,72.16
2023-02-22T18:28:48.656Z,72.08
2023-02-22T18:31:18.601Z,72.16
2023-02-22T18:33:50.245Z,72.71
2023-02-22T18:36:22.640Z,72.73
2023-02-22T18:38:51.809Z,72.53
2023-02-22T18:41:20.891Z,73.06
2023-02-22T18:43:50.843Z,72.75
2023-02-22T18:46:20.573Z,72.75
2023-02-22T18:48:53.211Z,72.69
2023-02-22T18:51:20.953Z,72.67
2023-02-22T18:53:50.076Z,73.13
2023-02-22T18:56:21.859Z,72.94
2023-02-22T18:58:53.834Z,72.75
2023-02-22T19:01:22.102Z,73.01
2023-02-22T19:03:51.934Z,72.88
2023-02-22T19:06:21.950Z,73.05
2023-02-22T19:08:50.678Z,73.04
2023-02-22T19:11:20.061Z,72.55
2023-02-22T19:13:48.996Z,72.86
2023-02-22T19:16:20.684Z,73.13
2023-02-22T19:18:49.815Z,72.58
2023-02-22T19:21:19.976Z,72.75
2023-02-22T19:23:48.532Z,72.71
2023-02-22T19:26:19.530Z,72.74
2023-02-22T19:28:47.685Z,73.51
2023-02-22T19:31:17.761Z,72.94
2023-02-22T19:33:47.960Z,73.29
2023-02-22T19:36:16.683Z,73.01
2023-02-22T19:38:46.285Z,73.43
2023-02-22T19:41:18.156Z,73.40
2023-02-22T19:43:46.220Z,72.93
2023-02-22T19:46:14.557Z,73.49
2023-02-22T19:48:42.300Z,73.22
2023-02-22T19:51:11.320Z,73.31
2023-02-22T19:53:40.108Z,73.81
2023-02-22T19:56:10.807Z,73.56
2023-02-22T19:58:39.220Z,73.40
2023-02-22T20:01:13.784Z,73.89
2023-02-22T20:03:42.121Z,73.55
2023-02-22T20:06:10.425Z,73.95
2023-02-22T20:08:42.007Z,74.14
2023-02-22T20:11:12.021Z,74.09
2023-02-22T20:13:40.474Z,73.87
2023-02-22T20:16:09.962Z,74.16
2023-02-22T20:18:38.070Z,73.96
2023-02-22T20:21:09.570Z,74.26
2023-02-22T20:23:40.141Z,74.01
2023-02-22T20:26:17.281Z,74.18
2023-02-22T20:28:45.009Z,74.61
2023-02-22T20:31:14.458Z,74.06
2023-02-22T20:33:42.768Z,74.48
2023-02-22T20:36:11.354Z,73.87
2023-02-22T20:38:39.519Z,74.13
2023-02-22T20:41:08.092Z,74.02
2023-02-22T20:43:37.344Z,74.81
2023-02-22T20:46:06.311Z,74.19
2023-02-22T20:48:34.935Z,74.45
2023-02-22T20:51:06.541Z,74.83
2023-02-22T20:53:34.532Z,74.75
2023-02-22T20:56:02.769Z,74.61
2023-02-22T20:58:30.466Z,74.67
2023-02-22T21:01:04.851Z,74.68
2023-02-22T21:03:33.660Z,74.48
2023-02-22T21:06:01.472Z,74.47
2023-02-22T21:08:29.191Z,74.66
2023-02-22T21:10:56.916Z,74.87
2023-02-22T21:13:24.669Z,74.79
2023-02-22T21:15:52.711Z,74.96
2023-02-22T21:18:24.685Z,74.74
2023-02-22T21:20:53.797Z,75.01
2023-02-22T21:23:21.508Z,75.32
2023-02-22T21:25:52.427Z,74.92
2023-02-22T21:28:20.365Z,74.87
2023-02-22T21:30:48.710Z,75.08
2023-02-22T21:33:16.905Z,75.55
2023-02-22T21:35:47.253Z,75.32
2023-02-22T21:38:15.289Z,74.98
2023-02-22T21:40:44.551Z,75.34
2023-02-22T21:43:13.097Z,75.75
2023-02-22T21:45:41.080Z,75.55
2023-02-22T21:48:08.834Z,75.73
2023-02-22T21:50:37.804Z,75.80
2023-02-22T21:53:07.416Z,75.94
2023-02-22T21:55:35.939Z,75.91
2023-02-22T21:58:03.705Z,76.00
2023-02-22T22:00:38.027Z,76.17
2023-02-22T22:03:11.639Z,76.03
2023-02-22T22:05:40.332Z,76.05
2023-02-22T22:08:13.292Z,75.65
2023-02-22T22:10:41.024Z,75.68
2023-02-22T22:13:09.164Z,75.71
2023-02-22T22:15:37.486Z,76.21
2023-02-22T22:18:06.640Z,75.91
2023-02-22T22:20:37.679Z,76.19
2023-02-22T22:23:05.884Z,76.30
2023-02-22T22:25:38.105Z,76.61
2023-02-22T22:28:07.742Z,76.09
2023-02-22T22:30:37.057Z,76.44
2023-02-22T22:33:08.385Z,76.66
2023-02-22T22:35:36.124Z,76.29
2023-02-22T22:38:03.915Z,76.08
2023-02-22T22:40:34.329Z,76.00
2023-02-22T22:43:06.119Z,76.24
2023-02-22T22:45:33.893Z,76.59
2023-02-22T22:48:02.247Z,76.72
2023-02-22T22:50:30.124Z,76.50
2023-02-22T22:52:58.153Z,77.20
2023-02-22T22:55:25.866Z,76.55
2023-02-22T22:57:53.634Z,76.55
2023-02-22T23:00:30.080Z,76.63
2023-02-22T23:02:57.948Z,77.15
2023-02-22T23:05:27.930Z,77.07
2023-02-22T23:07:57.115Z,77.03
2023-02-22T23:10:28.130Z,76.79
2023-02-22T23:12:57.190Z,77.10
2023-02-22T23:15:26.864Z,76.96
2023-02-22T23:17:56.182Z,77.30
2023-02-22T23:20:26.316Z,77.24
2023-02-22T23:22:54.229Z,77.18
2023-02-22T23:25:22.272Z,77.63
2023-02-22T23:27:50.401Z,77.14
2023-02-22T23:30:18.995Z,77.43
2023-02-22T23:32:48.894Z,77.38
2023-02-22T23:35:18.958Z,77.32
2023-02-22T23:37:53.042Z,77.42
2023-02-22T23:40:20.949Z,77.19
2023-02-22T23:42:49.958Z,77.36
2023-02-22T23:45:23.506Z,77.45
2023-02-22T23:47:54.923Z,77.65
2023-02-22T23:50:24.144Z,77.38
2023-02-22T23:52:56.971Z,77.15
2023-02-22T23:55:25.533Z,77.80
2023-02-22T23:57:59.306Z,77.97
